Time;durP1;ratioP1;P1;durP2;ratioP2;P2;SDS_P1;SDS_P2;PMS_P1;PMS_P2;Temp;Humidity;BMP_temperature;BMP_pressure;BME280_temperature;BME280_humidity;BME280_pressure;Samples;Min_cycle;Max_cycle;Signal;HPM_P1;HPM_P2
2021/06/29 00:01:56;;;;;;;6.80;3.85;;;;;;;20.98;50.49;94113.50;5055044;28;20024;-75
2021/06/29 00:04:22;;;;;;;8.43;4.38;;;;;;;20.97;50.62;94111.19;5070943;28;20369;-74
2021/06/29 00:06:48;;;;;;;8.80;4.10;;;;;;;20.96;50.60;94110.41;5069503;28;20111;-75
2021/06/29 00:09:14;;;;;;;8.55;3.65;;;;;;;20.93;50.75;94105.75;5070689;28;20387;-74
2021/06/29 00:11:40;;;;;;;5.95;3.80;;;;;;;20.86;51.85;94115.72;5070664;28;20040;-75
2021/06/29 00:14:05;;;;;;;7.80;3.70;;;;;;;20.82;52.18;94102.94;5069280;28;20393;-75
2021/06/29 00:16:31;;;;;;;9.10;4.30;;;;;;;20.88;52.12;94108.78;5070489;28;20040;-65
2021/06/29 00:18:56;;;;;;;7.63;4.32;;;;;;;20.85;52.10;94098.69;5070105;28;20027;-65
2021/06/29 00:21:22;;;;;;;8.80;4.57;;;;;;;20.87;52.22;94103.75;5068962;28;20082;-65
2021/06/29 00:23:47;;;;;;;8.18;3.65;;;;;;;20.89;51.89;94102.22;5069978;28;20024;-65
2021/06/29 00:26:14;;;;;;;7.45;4.45;;;;;;;20.92;51.80;94111.53;5070231;28;20036;-65
2021/06/29 00:28:39;;;;;;;9.95;3.70;;;;;;;20.93;51.95;94105.75;5070138;28;20028;-66
2021/06/29 00:31:05;;;;;;;5.38;3.95;;;;;;;20.93;52.12;94111.16;5069845;28;20063;-73
2021/06/29 00:33:31;;;;;;;6.85;3.92;;;;;;;20.86;52.30;94107.59;5069109;28;20024;-75
2021/06/29 00:35:57;;;;;;;5.03;3.78;;;;;;;20.81;52.04;94103.31;5069334;28;20012;-74
2021/06/29 00:38:22;;;;;;;6.18;3.78;;;;;;;20.77;52.12;94110.63;5067639;28;20033;-74
2021/06/29 00:40:48;;;;;;;6.30;3.97;;;;;;;20.73;52.33;94112.50;5050431;28;20029;-74
2021/06/29 00:43:13;;;;;;;10.27;4.15;;;;;;;20.70;52.99;94113.22;5050612;28;20032;-74
2021/06/29 00:45:39;;;;;;;7.50;4.55;;;;;;;20.69;52.89;94106.28;5050473;28;20021;-74
2021/06/29 00:48:04;;;;;;;7.63;4.28;;;;;;;20.67;52.98;94108.56;5048954;28;20850;-74
2021/06/29 00:50:30;;;;;;;7.65;4.47;;;;;;;20.64;53.33;94108.16;5050476;28;20545;-74
2021/06/29 00:52:56;;;;;;;10.88;5.00;;;;;;;20.58;53.18;94104.22;5048873;28;20495;-74
2021/06/29 00:55:21;;;;;;;8.80;5.00;;;;;;;20.46;54.03;94109.09;5049823;28;20060;-74
2021/06/29 00:57:51;;;;;;;9.65;4.07;;;;;;;20.43;54.10;94099.78;5050398;28;20028;-74
2021/06/29 01:00:17;;;;;;;9.88;4.63;;;;;;;20.45;53.66;94100.19;5050171;28;20013;-74
2021/06/29 01:02:43;;;;;;;8.82;4.68;;;;;;;20.39;53.80;94109.78;5057456;28;20063;-74
2021/06/29 01:05:09;;;;;;;7.95;4.22;;;;;;;20.37;54.02;94101.25;5070045;28;20185;-73
2021/06/29 01:07:35;;;;;;;7.07;4.22;;;;;;;20.31;53.76;94110.84;5070109;28;20025;-74
2021/06/29 01:10:06;;;;;;;7.90;4.40;;;;;;;20.22;54.68;94109.19;5070062;28;20578;-74
2021/06/29 01:12:31;;;;;;;7.25;5.13;;;;;;;20.16;54.88;94107.19;5069989;28;20498;-74
2021/06/29 01:14:57;;;;;;;8.63;5.03;;;;;;;20.16;54.88;94110.66;5068740;28;20049;-74
2021/06/29 01:17:24;;;;;;;10.63;5.00;;;;;;;20.14;54.67;94120.31;5068663;28;20028;-74
2021/06/29 01:19:51;;;;;;;7.65;4.78;;;;;;;20.13;54.80;94116.03;5070151;28;20020;-74
2021/06/29 01:22:23;;;;;;;11.38;5.32;;;;;;;20.10;55.39;94109.44;5066676;28;20029;-74
2021/06/29 01:24:55;;;;;;;9.02;4.95;;;;;;;20.05;55.33;94109.78;5068726;28;20376;-74
2021/06/29 01:31:00;;;;;;;6.43;4.22;;;;;;;20.03;55.81;94106.66;5070033;28;20395;-74
2021/06/29 01:32:37;;;;;;;7.57;3.97;;;;;;;20.00;55.71;94101.97;5069774;28;20567;-74
2021/06/29 01:35:08;;;;;;;7.70;3.65;;;;;;;19.92;55.75;94097.59;5068738;28;20112;-74
2021/06/29 01:37:35;;;;;;;6.95;4.82;;;;;;;19.81;56.29;94087.41;5069783;28;20403;-74
2021/06/29 01:40:08;;;;;;;7.80;4.32;;;;;;;19.80;56.44;94091.28;5070030;28;20028;-74
2021/06/29 01:42:34;;;;;;;6.32;4.18;;;;;;;19.76;56.76;94106.69;5069828;28;20411;-74
2021/06/29 01:45:00;;;;;;;8.00;3.88;;;;;;;19.73;56.46;94102.00;5068620;28;20028;-74
2021/06/29 01:47:35;;;;;;;8.63;4.20;;;;;;;19.65;56.73;94087.56;5060642;28;20028;-74
2021/06/29 01:50:14;;;;;;;7.53;4.35;;;;;;;19.58;56.67;94094.78;5048524;28;20025;-74
2021/06/29 01:52:40;;;;;;;7.90;4.53;;;;;;;19.56;56.67;94103.28;5049909;28;20496;-73
2021/06/29 01:55:06;;;;;;;9.32;4.90;;;;;;;19.54;56.32;94099.34;5062659;28;20028;-74
2021/06/29 01:57:32;;;;;;;6.32;4.30;;;;;;;19.55;55.88;94095.53;5069721;28;20088;-74
2021/06/29 01:59:57;;;;;;;7.47;4.07;;;;;;;19.56;55.49;94099.78;5068392;28;20096;-74
2021/06/29 02:02:22;;;;;;;6.40;4.45;;;;;;;19.56;55.67;94097.88;5069505;28;20044;-73
2021/06/29 02:04:48;;;;;;;6.95;4.45;;;;;;;19.56;55.07;94097.88;5069807;28;20539;-74
2021/06/29 02:07:13;;;;;;;6.22;3.67;;;;;;;19.54;54.69;94099.34;5069978;28;20078;-74
2021/06/29 02:09:39;;;;;;;8.30;3.60;;;;;;;19.55;55.00;94100.94;5056250;28;20503;-73
2021/06/29 02:12:05;;;;;;;8.10;4.82;;;;;;;19.54;55.63;94099.34;5052317;28;20534;-74
2021/06/29 02:14:31;;;;;;;5.43;3.95;;;;;;;19.46;56.75;94103.91;5053349;28;20049;-74
2021/06/29 02:16:56;;;;;;;9.75;3.88;;;;;;;19.44;56.55;94101.56;5053629;28;20035;-74
2021/06/29 02:19:21;;;;;;;8.82;4.05;;;;;;;19.41;56.67;94104.97;5053184;28;20064;-74
2021/06/29 02:21:47;;;;;;;7.45;4.00;;;;;;;19.39;56.27;94107.25;5052529;28;20028;-74
2021/06/29 02:24:12;;;;;;;8.70;4.03;;;;;;;19.40;55.95;94102.66;5071859;28;20032;-74
2021/06/29 02:26:37;;;;;;;5.60;3.60;;;;;;;19.34;56.48;94102.16;5058624;28;20025;-74
2021/06/29 02:29:03;;;;;;;10.80;4.18;;;;;;;19.29;56.75;94098.97;5062620;28;20084;-74
2021/06/29 02:31:28;;;;;;;6.70;4.72;;;;;;;19.23;57.11;94104.72;5073115;28;20039;-74
2021/06/29 02:33:54;;;;;;;6.03;3.75;;;;;;;19.20;57.13;94101.94;5072643;28;20095;-74
2021/06/29 02:36:19;;;;;;;6.20;4.18;;;;;;;19.16;57.00;94101.09;5071613;28;20509;-73
2021/06/29 02:38:45;;;;;;;8.50;4.20;;;;;;;19.12;57.44;94113.78;5071585;28;20031;-74
2021/06/29 02:41:10;;;;;;;8.07;4.13;;;;;;;19.12;57.29;94113.78;5072532;28;20451;-73
2021/06/29 02:43:38;;;;;;;5.28;3.75;;;;;;;19.07;57.54;94109.47;5073125;28;20139;-74
2021/06/29 02:46:03;;;;;;;7.43;3.92;;;;;;;19.08;57.33;94111.00;5067998;28;20158;-74
2021/06/29 02:48:28;;;;;;;7.43;4.18;;;;;;;19.08;57.47;94111.00;5052658;28;20111;-74
2021/06/29 02:50:54;;;;;;;6.60;4.07;;;;;;;19.06;57.67;94107.13;5052261;28;20122;-74
2021/06/29 02:53:20;;;;;;;7.50;3.80;;;;;;;19.01;58.16;94110.88;5052743;28;20511;-74
2021/06/29 02:55:45;;;;;;;13.68;4.85;;;;;;;18.98;58.66;94106.97;5051305;28;20039;-73
2021/06/29 02:58:11;;;;;;;12.60;4.47;;;;;;;18.91;58.39;94109.56;5052391;28;20036;-74
2021/06/29 03:00:36;;;;;;;8.85;5.00;;;;;;;18.91;58.23;94112.28;5052584;28;20483;-74
2021/06/29 03:03:02;;;;;;;10.23;4.07;;;;;;;18.91;58.16;94116.88;5050927;28;20106;-73
2021/06/29 03:05:27;;;;;;;6.65;4.47;;;;;;;18.93;58.22;94115.41;5056911;28;20021;-73
2021/06/29 03:07:53;;;;;;;10.27;4.20;;;;;;;18.92;58.41;94118.44;5071100;28;20464;-73
2021/06/29 03:10:18;;;;;;;6.68;4.55;;;;;;;18.92;58.75;94127.31;5072202;28;20151;-74
2021/06/29 03:12:44;;;;;;;6.78;4.15;;;;;;;18.91;58.31;94117.69;5072340;28;20036;-74
2021/06/29 03:15:10;;;;;;;7.45;4.22;;;;;;;18.94;58.03;94108.06;5070474;28;20054;-74
2021/06/29 03:17:35;;;;;;;5.68;4.32;;;;;;;18.95;58.29;94110.41;5046835;28;20361;-74
2021/06/29 03:20:01;;;;;;;6.43;4.30;;;;;;;18.98;58.98;94115.09;5050566;28;20095;-74
2021/06/29 03:22:27;;;;;;;7.47;4.60;;;;;;;18.99;58.36;94116.66;5051894;28;20032;-74
2021/06/29 03:24:52;;;;;;;8.88;4.45;;;;;;;18.98;58.62;94120.47;5050883;28;20031;-74
2021/06/29 03:27:18;;;;;;;8.32;4.25;;;;;;;19.02;58.86;94117.84;5050617;28;20036;-74
2021/06/29 03:29:44;;;;;;;10.43;4.22;;;;;;;19.02;58.18;94118.63;5050732;28;20060;-74
2021/06/29 03:32:09;;;;;;;8.20;4.68;;;;;;;19.06;58.60;94112.50;5050571;28;20024;-73
2021/06/29 03:34:35;;;;;;;7.20;4.32;;;;;;;19.07;59.06;94114.88;5051659;28;20405;-74
2021/06/29 03:37:04;;;;;;;8.68;4.72;;;;;;;19.09;58.40;94118.00;5050477;28;20025;-74
2021/06/29 03:39:31;;;;;;;11.07;4.82;;;;;;;19.13;58.29;94115.31;5051474;28;20021;-74
2021/06/29 03:41:56;;;;;;;9.10;4.55;;;;;;;19.17;58.08;94119.66;5051635;28;20056;-74
2021/06/29 03:44:22;;;;;;;6.85;4.40;;;;;;;19.23;57.98;94117.41;5061433;28;20460;-74
2021/06/29 03:46:47;;;;;;;8.32;4.93;;;;;;;19.29;58.14;94121.38;5071600;28;20024;-74
2021/06/29 03:49:13;;;;;;;11.13;4.95;;;;;;;19.31;58.53;94123.72;5071104;28;20398;-74
2021/06/29 03:51:38;;;;;;;7.75;4.78;;;;;;;19.32;58.70;94117.97;5071461;28;20166;-73
2021/06/29 03:54:05;;;;;;;7.38;5.38;;;;;;;19.33;58.56;94130.31;5055982;28;20029;-74
2021/06/29 03:56:31;;;;;;;12.48;5.35;;;;;;;19.36;59.39;94131.53;5051100;28;20482;-74
2021/06/29 03:59:00;;;;;;;10.95;5.80;;;;;;;19.38;59.85;94134.66;5050127;28;20081;-74
2021/06/29 04:01:27;;;;;;;9.82;5.47;;;;;;;19.41;59.59;94133.91;5050933;28;20040;-74
2021/06/29 04:03:55;;;;;;;14.63;4.93;;;;;;;19.42;59.70;94127.38;5051898;28;20023;-72
2021/06/29 04:06:25;;;;;;;12.43;6.20;;;;;;;19.42;59.67;94138.19;5051256;28;20021;-73
2021/06/29 04:08:55;;;;;;;13.45;6.30;;;;;;;19.46;60.11;94144.44;5049453;28;20070;-73
2021/06/29 04:11:24;;;;;;;11.70;6.90;;;;;;;19.54;60.43;94142.59;5050956;28;20090;-73
2021/06/29 04:13:50;;;;;;;12.23;6.75;;;;;;;19.59;60.45;94142.31;5052675;28;20520;-73
2021/06/29 04:16:16;;;;;;;11.98;5.95;;;;;;;19.64;60.36;94142.00;5069687;28;20504;-73
2021/06/29 04:18:43;;;;;;;10.75;6.28;;;;;;;19.66;59.81;94139.69;5070635;28;20024;-73
2021/06/29 04:21:08;;;;;;;10.13;6.18;;;;;;;19.71;59.18;94135.97;5070835;28;20032;-73
2021/06/29 04:23:34;;;;;;;11.38;5.90;;;;;;;19.72;59.46;94137.50;5070486;28;20032;-73
2021/06/29 04:25:59;;;;;;;9.65;6.15;;;;;;;19.81;59.52;94125.28;5070480;28;20044;-73
2021/06/29 04:28:25;;;;;;;12.68;6.05;;;;;;;19.93;59.49;94131.63;5069652;28;20050;-73
2021/06/29 04:30:51;;;;;;;8.95;5.97;;;;;;;20.02;58.42;94119.38;5050121;28;20028;-73
2021/06/29 04:33:16;;;;;;;9.38;5.97;;;;;;;20.10;57.03;94116.78;5050731;28;20029;-74
2021/06/29 04:35:42;;;;;;;10.25;6.45;;;;;;;20.14;58.14;94121.09;5058993;28;20074;-74
2021/06/29 04:38:07;;;;;;;9.88;6.18;;;;;;;20.19;58.60;94134.31;5050694;28;20170;-74
2021/06/29 04:40:32;;;;;;;13.25;6.57;;;;;;;20.23;58.70;94127.00;5058192;28;20021;-74
2021/06/29 04:42:58;;;;;;;11.73;7.22;;;;;;;20.22;58.12;94120.03;5070579;28;20024;-74
2021/06/29 04:45:26;;;;;;;13.70;6.80;;;;;;;20.12;58.62;94128.00;5070383;28;20107;-74
2021/06/29 04:47:54;;;;;;;12.88;6.10;;;;;;;20.17;58.00;94125.78;5070262;28;20028;-74
2021/06/29 04:50:19;;;;;;;13.07;6.63;;;;;;;20.18;58.03;94127.31;5070336;28;20522;-74
2021/06/29 04:52:45;;;;;;;12.00;6.28;;;;;;;20.28;58.17;94134.03;5070080;28;20033;-74
2021/06/29 04:55:11;;;;;;;13.05;5.80;;;;;;;20.32;57.70;94134.84;5065440;28;20017;-74
2021/06/29 04:57:37;;;;;;;17.63;5.90;;;;;;;20.37;57.09;94133.72;5050210;28;20074;-74
2021/06/29 05:00:11;;;;;;;7.50;5.47;;;;;;;20.31;57.42;94133.28;5062824;28;20111;-74
2021/06/29 05:02:37;;;;;;;21.15;8.40;;;;;;;20.28;58.33;94131.31;5070287;28;21413;-74
2021/06/29 05:05:06;;;;;;;13.63;6.60;;;;;;;20.31;57.36;94140.63;5070128;28;20521;-74
2021/06/29 05:07:32;;;;;;;18.85;7.68;;;;;;;20.25;57.46;94134.75;5070020;28;20028;-74
2021/06/29 05:09:58;;;;;;;9.48;6.53;;;;;;;20.32;58.21;94136.78;5069621;28;20475;-74
2021/06/29 05:12:23;;;;;;;14.10;6.75;;;;;;;20.43;57.56;94140.38;5068549;28;20035;-74
2021/06/29 05:14:49;;;;;;;11.32;6.00;;;;;;;20.47;56.61;94143.13;5068572;28;20044;-74
2021/06/29 05:17:14;;;;;;;15.23;6.55;;;;;;;20.47;57.78;94143.91;5070081;28;20403;-74
2021/06/29 05:19:39;;;;;;;12.00;6.97;;;;;;;20.56;57.59;94141.72;5068702;28;20032;-74
2021/06/29 05:22:06;;;;;;;9.38;6.30;;;;;;;20.60;56.12;94139.06;5069728;28;20028;-74
2021/06/29 05:24:31;;;;;;;13.55;6.38;;;;;;;20.70;56.16;94141.13;5070114;28;20039;-74
2021/06/29 05:26:57;;;;;;;14.40;6.55;;;;;;;20.79;56.10;94138.09;5069431;28;20415;-74
2021/06/29 05:29:22;;;;;;;12.52;6.40;;;;;;;20.89;55.80;94134.72;5068427;28;20029;-74
2021/06/29 05:31:48;;;;;;;10.77;6.88;;;;;;;20.96;55.82;94142.91;5070047;28;20024;-74
2021/06/29 05:34:13;;;;;;;15.02;6.82;;;;;;;21.06;55.61;94137.97;5069640;28;20488;-74
2021/06/29 05:36:38;;;;;;;14.43;7.47;;;;;;;21.13;55.03;94135.34;5069948;28;20111;-74
2021/06/29 05:39:04;;;;;;;14.88;7.43;;;;;;;21.18;54.79;94137.72;5071774;28;20384;-74
2021/06/29 05:41:30;;;;;;;9.48;6.93;;;;;;;21.29;55.45;94144.00;5057161;28;20032;-74
2021/06/29 05:43:56;;;;;;;14.20;7.57;;;;;;;21.40;55.45;94138.69;5052491;28;20341;-74
2021/06/29 05:46:22;;;;;;;15.65;7.47;;;;;;;21.48;55.86;94142.25;5052330;28;20044;-73
2021/06/29 05:48:49;;;;;;;20.30;8.30;;;;;;;21.52;56.75;94141.13;5053736;28;20025;-73
2021/06/29 05:51:15;;;;;;;21.02;8.38;;;;;;;21.62;56.32;94145.09;5053231;28;20025;-73
2021/06/29 05:53:40;;;;;;;16.08;8.13;;;;;;;21.76;55.82;94136.28;5053504;28;20036;-74
2021/06/29 05:56:07;;;;;;;16.17;8.70;;;;;;;21.83;55.40;94133.59;5053337;28;20496;-73
2021/06/29 05:58:33;;;;;;;18.30;8.70;;;;;;;21.99;55.96;94144.16;5053497;28;20508;-74
2021/06/29 06:00:58;;;;;;;20.30;8.80;;;;;;;22.06;55.54;94138.75;5052314;28;20036;-73
2021/06/29 06:03:24;;;;;;;18.67;8.18;;;;;;;22.15;55.70;94136.50;5052966;28;20502;-73
2021/06/29 06:05:49;;;;;;;15.75;7.38;;;;;;;22.28;56.71;94141.63;5053385;28;20100;-75
2021/06/29 06:08:15;;;;;;;32.63;8.35;;;;;;;22.43;55.88;94138.59;5051720;28;20029;-73
2021/06/29 06:10:40;;;;;;;15.88;9.10;;;;;;;22.57;54.59;94139.81;5053225;28;20029;-75
2021/06/29 06:13:06;;;;;;;15.45;7.80;;;;;;;22.61;54.49;94132.44;5052677;28;21958;-75
2021/06/29 06:15:31;;;;;;;19.45;8.65;;;;;;;22.70;54.78;94132.09;5053252;28;20453;-73
2021/06/29 06:17:57;;;;;;;18.48;9.05;;;;;;;22.84;54.89;94132.13;5057451;28;20053;-74
2021/06/29 06:20:23;;;;;;;14.82;8.68;;;;;;;22.93;54.76;94135.25;5066780;28;20021;-73
2021/06/29 06:22:48;;;;;;;21.92;9.63;;;;;;;22.99;54.58;94131.00;5062758;28;20032;-73
2021/06/29 06:25:14;;;;;;;17.73;10.57;;;;;;;23.05;53.50;94133.38;5062803;28;20450;-74
2021/06/29 06:27:39;;;;;;;13.95;9.05;;;;;;;23.11;53.40;94137.25;5056805;28;20029;-74
2021/06/29 06:30:06;;;;;;;14.90;8.85;;;;;;;23.21;53.01;94140.00;5062728;28;20089;-74
2021/06/29 06:32:32;;;;;;;23.38;9.13;;;;;;;23.35;52.13;94130.31;5071409;28;20089;-74
2021/06/29 06:34:57;;;;;;;19.45;10.30;;;;;;;23.47;52.51;94126.41;5060451;28;20025;-74
2021/06/29 06:37:23;;;;;;;23.70;10.07;;;;;;;23.54;51.70;94138.06;5068908;28;20029;-74
2021/06/29 06:39:48;;;;;;;24.45;9.77;;;;;;;23.55;50.87;94134.19;5064890;28;20040;-74
2021/06/29 06:42:14;;;;;;;31.67;9.50;;;;;;;23.61;51.88;94137.28;5065949;28;20453;-74
2021/06/29 06:44:40;;;;;;;17.05;10.27;;;;;;;23.66;52.04;94133.41;5054840;28;20029;-74
2021/06/29 06:47:05;;;;;;;18.00;10.50;;;;;;;23.73;51.93;94131.47;5061854;28;20112;-74
2021/06/29 06:49:31;;;;;;;18.65;9.52;;;;;;;23.82;51.46;94134.56;5060899;28;20105;-74
2021/06/29 06:51:56;;;;;;;13.80;9.48;;;;;;;23.91;51.56;94127.94;5066635;28;20024;-74
2021/06/29 06:54:22;;;;;;;18.52;9.77;;;;;;;23.97;51.08;94129.88;5067715;28;20051;-74
2021/06/29 06:56:47;;;;;;;17.77;8.52;;;;;;;24.06;50.71;94131.41;5068001;28;20035;-74
2021/06/29 06:59:12;;;;;;;21.17;9.80;;;;;;;24.06;49.85;94129.50;5066147;28;20400;-74
2021/06/29 07:01:39;;;;;;;12.57;8.15;;;;;;;24.09;49.40;94125.97;5063120;28;20510;-75
2021/06/29 07:04:05;;;;;;;25.55;10.18;;;;;;;24.10;49.78;94126.75;5051151;28;20029;-75
2021/06/29 07:06:31;;;;;;;18.50;9.25;;;;;;;24.12;49.31;94129.84;5051941;28;20033;-75
2021/06/29 07:08:56;;;;;;;13.52;8.82;;;;;;;24.15;47.88;94126.34;5053676;28;20025;-76
2021/06/29 07:11:21;;;;;;;17.17;8.43;;;;;;;24.12;48.34;94130.66;5072182;28;20025;-74
2021/06/29 07:13:47;;;;;;;16.48;8.75;;;;;;;24.14;49.02;94128.31;5052953;28;20057;-75
2021/06/29 07:16:12;;;;;;;18.48;9.23;;;;;;;24.18;49.06;94123.63;5051879;28;20052;-74
2021/06/29 07:18:38;;;;;;;18.58;9.27;;;;;;;24.21;49.34;94120.09;5061670;28;20051;-75
2021/06/29 07:21:03;;;;;;;19.92;10.35;;;;;;;24.29;49.05;94118.13;5051527;28;20465;-75
2021/06/29 07:23:29;;;;;;;16.15;9.68;;;;;;;24.39;48.77;94117.31;5060143;28;20537;-75
2021/06/29 07:25:54;;;;;;;15.38;9.32;;;;;;;24.48;48.01;94125.06;5069033;28;20442;-75
2021/06/29 07:28:20;;;;;;;31.27;9.65;;;;;;;24.59;48.23;94128.56;5054614;28;20029;-75
2021/06/29 07:30:45;;;;;;;24.48;9.60;;;;;;;24.68;48.54;94124.63;5067382;28;20032;-75
2021/06/29 07:33:11;;;;;;;14.13;9.07;;;;;;;24.72;48.10;94125.38;5068658;28;20097;-76
2021/06/29 07:35:36;;;;;;;18.00;9.10;;;;;;;24.83;47.44;94120.63;5057588;28;20490;-72
2021/06/29 07:38:02;;;;;;;15.82;8.35;;;;;;;24.87;46.47;94117.91;5058894;28;20474;-74
2021/06/29 07:40:29;;;;;;;14.10;8.45;;;;;;;24.93;46.22;94121.75;5061518;28;20028;-74
2021/06/29 07:42:58;;;;;;;14.43;8.68;;;;;;;24.94;47.77;94117.88;5054340;28;20056;-74
2021/06/29 07:45:29;;;;;;;12.80;8.35;;;;;;;25.02;47.50;94114.69;5063802;28;20491;-75
2021/06/29 07:47:56;;;;;;;17.73;9.13;;;;;;;25.13;47.35;94117.34;5059206;28;20039;-74
2021/06/29 07:50:22;;;;;;;22.02;8.98;;;;;;;25.25;46.57;94113.41;5059913;28;20021;-74
2021/06/29 07:52:47;;;;;;;20.92;8.52;;;;;;;25.39;47.23;94110.56;5057630;28;20034;-74
2021/06/29 07:55:13;;;;;;;17.00;9.07;;;;;;;25.55;46.32;94098.38;5070705;28;20031;-74
2021/06/29 07:57:38;;;;;;;15.07;8.48;;;;;;;25.63;45.91;94105.31;5064620;28;20028;-73
2021/06/29 08:00:07;;;;;;;17.67;8.20;;;;;;;25.68;46.44;94104.88;5050649;28;20075;-73
2021/06/29 08:02:32;;;;;;;13.82;9.05;;;;;;;25.76;46.64;94103.63;5051216;28;20086;-74
2021/06/29 08:04:57;;;;;;;20.20;9.40;;;;;;;25.83;46.13;94113.72;5066978;28;20025;-74
2021/06/29 08:07:23;;;;;;;15.85;8.13;;;;;;;25.92;45.03;94105.84;5067889;28;20029;-74
2021/06/29 08:09:48;;;;;;;13.75;7.75;;;;;;;25.99;44.16;94107.72;5066890;28;20475;-73
2021/06/29 08:12:14;;;;;;;17.63;8.10;;;;;;;25.99;43.25;94103.06;5062558;28;20036;-74
2021/06/29 08:14:39;;;;;;;16.77;7.93;;;;;;;26.10;44.59;94105.66;5070433;28;20048;-74
2021/06/29 08:17:06;;;;;;;12.23;7.80;;;;;;;26.20;44.66;94109.47;5070682;28;20111;-73
2021/06/29 08:19:32;;;;;;;12.90;7.25;;;;;;;26.20;43.07;94104.78;5064902;28;20032;-73
2021/06/29 08:21:57;;;;;;;14.00;8.15;;;;;;;26.25;44.57;94095.34;5067253;28;20028;-73
2021/06/29 08:24:23;;;;;;;17.05;8.18;;;;;;;26.36;43.94;94098.75;5064789;28;20028;-75
2021/06/29 08:26:48;;;;;;;69.95;27.20;;;;;;;26.47;43.86;94086.91;5065440;28;20109;-72
2021/06/29 08:29:14;;;;;;;233.48;87.05;;;;;;;26.58;43.45;94091.09;5054085;28;20032;-71
2021/06/29 08:31:39;;;;;;;72.85;27.52;;;;;;;26.72;42.23;94094.81;5055017;28;20020;-74
2021/06/29 08:34:05;;;;;;;49.80;22.58;;;;;;;26.84;42.70;94099.72;5062224;28;20442;-73
2021/06/29 08:36:31;;;;;;;42.38;19.08;;;;;;;26.91;42.23;94090.63;5065590;28;20058;-74
2021/06/29 08:38:57;;;;;;;20.42;12.05;;;;;;;27.01;41.63;94087.78;5064276;28;20021;-74
2021/06/29 08:41:23;;;;;;;15.25;8.10;;;;;;;27.02;41.79;94108.44;5056261;28;20024;-75
2021/06/29 08:43:50;;;;;;;15.13;9.00;;;;;;;27.01;42.04;94095.97;5051433;28;20074;-75
2021/06/29 08:46:15;;;;;;;17.08;8.95;;;;;;;27.03;42.23;94092.84;5055967;28;20037;-74
2021/06/29 08:48:41;;;;;;;18.95;8.43;;;;;;;27.07;42.43;94092.75;5062266;28;20410;-73
2021/06/29 08:51:07;;;;;;;18.02;9.05;;;;;;;27.09;42.70;94082.19;5061768;28;20020;-73
2021/06/29 08:53:34;;;;;;;20.55;9.15;;;;;;;27.16;42.67;94087.56;5070135;28;20027;-74
2021/06/29 08:56:00;;;;;;;16.95;8.93;;;;;;;27.22;41.61;94072.22;5056911;28;20025;-75
2021/06/29 08:58:28;;;;;;;20.33;8.57;;;;;;;27.33;41.53;94070.09;5050091;28;20040;-74
2021/06/29 09:00:54;;;;;;;17.52;8.27;;;;;;;27.46;40.28;94061.31;5049496;28;20017;-74
2021/06/29 09:03:20;;;;;;;12.57;7.75;;;;;;;27.58;39.50;94077.16;5055564;28;20028;-74
2021/06/29 09:05:53;;;;;;;12.38;6.88;;;;;;;27.69;39.14;94068.75;5059006;28;20029;-74
2021/06/29 09:08:23;;;;;;;11.30;6.00;;;;;;;27.81;36.38;94063.44;5050728;28;20052;-74
2021/06/29 09:11:05;;;;;;;14.38;6.40;;;;;;;27.93;36.48;94064.06;5068271;28;20500;-74
2021/06/29 09:13:31;;;;;;;18.23;8.05;;;;;;;28.04;38.07;94063.84;5061910;28;20097;-74
2021/06/29 09:15:57;;;;;;;17.55;8.15;;;;;;;28.09;40.25;94066.06;5066129;28;20081;-74
2021/06/29 09:18:25;;;;;;;19.92;10.38;;;;;;;28.11;39.66;94056.28;5058800;28;20050;-73
2021/06/29 09:20:58;;;;;;;21.33;9.68;;;;;;;28.16;39.56;94061.25;5052252;28;20025;-74
2021/06/29 09:23:33;;;;;;;12.70;7.45;;;;;;;28.27;40.18;94043.81;5054635;28;20028;-75
2021/06/29 09:26:10;;;;;;;11.05;6.50;;;;;;;28.37;40.03;94045.56;5069693;28;20028;-75
2021/06/29 09:28:50;;;;;;;22.45;7.70;;;;;;;28.46;38.70;94051.25;5068252;28;20029;-75
2021/06/29 09:31:19;;;;;;;18.65;7.70;;;;;;;28.55;39.26;94037.78;5056548;28;20029;-75
2021/06/29 09:33:46;;;;;;;23.58;7.90;;;;;;;28.63;39.05;94038.41;5049532;28;20079;-75
2021/06/29 09:36:14;;;;;;;18.48;8.30;;;;;;;28.75;39.17;94039.72;5049515;28;20021;-75
2021/06/29 09:38:42;;;;;;;11.93;6.63;;;;;;;28.82;36.59;94045.03;5049665;28;20089;-75
2021/06/29 09:41:14;;;;;;;13.85;7.00;;;;;;;28.87;37.68;94041.78;5063426;28;20040;-75
2021/06/29 09:43:40;;;;;;;;;;;;;;;28.81;36.96;94038.00;5068158;28;20040;-75
2021/06/29 09:46:09;;;;;;;14.57;7.57;;;;;;;28.77;37.77;94042.81;5054642;28;19917;-75
2021/06/29 09:48:35;;;;;;;17.52;8.18;;;;;;;28.85;39.47;94046.16;5049417;28;20029;-75
2021/06/29 09:51:09;;;;;;;16.67;7.65;;;;;;;28.94;39.32;94040.84;5048114;28;20024;-75
2021/06/29 09:53:39;;;;;;;12.55;6.95;;;;;;;29.05;39.22;94044.13;5064219;28;20028;-75
2021/06/29 09:56:11;;;;;;;14.30;7.43;;;;;;;29.08;37.19;94040.50;5067007;28;20033;-75
2021/06/29 09:58:39;;;;;;;12.13;7.32;;;;;;;28.98;38.31;94036.84;5054584;28;20483;-76
2021/06/29 10:01:05;;;;;;;13.10;7.95;;;;;;;29.08;38.58;94039.75;5069287;28;20408;-75
2021/06/29 10:03:34;;;;;;;12.38;7.60;;;;;;;29.18;37.42;94033.25;5069567;28;20028;-75
2021/06/29 10:06:14;;;;;;;11.35;6.38;;;;;;;29.21;37.04;94037.91;5049433;28;20095;-76
2021/06/29 10:08:45;;;;;;;12.13;6.75;;;;;;;29.31;37.19;94031.38;5051782;28;20025;-75
2021/06/29 10:11:32;;;;;;;11.10;6.78;;;;;;;29.43;37.75;94024.41;5057217;28;20498;-76
2021/06/29 10:14:13;;;;;;;12.07;7.22;;;;;;;29.54;37.93;94024.16;5055990;28;20032;-76
2021/06/29 10:16:40;;;;;;;19.38;7.20;;;;;;;29.55;37.71;94014.69;5069117;28;20032;-76
2021/06/29 10:21:46;;;;;;;11.45;7.38;;;;;;;29.48;37.60;94020.38;5053365;28;20039;-77
2021/06/29 10:24:14;;;;;;;11.82;7.55;;;;;;;29.49;37.12;94017.19;5048791;28;20507;-74
2021/06/29 10:26:42;;;;;;;12.60;7.15;;;;;;;29.47;38.09;94010.59;5051016;28;20116;-74
2021/06/29 10:29:13;;;;;;;19.80;8.82;;;;;;;29.59;39.29;94010.69;5055139;28;20060;-74
2021/06/29 10:31:42;;;;;;;17.92;7.18;;;;;;;29.70;38.91;94007.66;5064727;28;20036;-74
2021/06/29 10:34:09;;;;;;;15.60;9.05;;;;;;;29.81;39.13;94012.88;5067221;28;20064;-74
2021/06/29 10:36:39;;;;;;;15.20;9.30;;;;;;;29.85;38.47;94001.81;5053919;28;20170;-74
2021/06/29 10:39:06;;;;;;;15.07;6.88;;;;;;;29.87;38.46;94008.41;5062767;28;20032;-74
2021/06/29 10:41:34;;;;;;;19.25;8.75;;;;;;;29.93;39.26;93994.91;5066973;28;20063;-74
2021/06/29 10:44:01;;;;;;;13.00;7.95;;;;;;;29.99;37.97;93999.44;5052398;28;20036;-76
2021/06/29 10:46:29;;;;;;;13.38;7.38;;;;;;;30.01;35.82;93993.50;5070416;28;20024;-75
2021/06/29 10:49:17;;;;;;;14.65;8.13;;;;;;;30.07;37.66;93999.25;5072509;28;20036;-74
2021/06/29 10:51:43;;;;;;;9.90;7.43;;;;;;;30.18;38.55;94002.44;5066679;28;20458;-74
2021/06/29 10:54:34;;;;;;;11.38;7.40;;;;;;;30.30;38.16;93992.72;5072294;28;20037;-74
2021/06/29 10:57:00;;;;;;;15.30;8.33;;;;;;;30.29;37.79;93980.94;5040253;28;20461;-75
2021/06/29 10:59:32;;;;;;;13.77;8.10;;;;;;;30.40;38.21;93986.91;5051078;28;20116;-75
2021/06/29 11:01:59;;;;;;;14.32;8.25;;;;;;;30.51;38.21;93986.59;5052423;28;20498;-74
2021/06/29 11:04:46;;;;;;;12.65;7.72;;;;;;;30.54;37.86;93976.69;5056895;28;20025;-75
2021/06/29 11:07:27;;;;;;;12.77;9.52;;;;;;;30.60;37.78;93967.44;5068253;28;20103;-75
2021/06/29 11:10:06;;;;;;;12.52;9.00;;;;;;;30.56;38.88;93972.28;5066296;28;20094;-75
2021/06/29 11:12:34;;;;;;;12.20;8.00;;;;;;;30.65;38.61;93965.38;5054683;28;20408;-74
2021/06/29 11:15:02;;;;;;;12.20;8.25;;;;;;;30.75;38.25;93964.25;5061994;28;20052;-74
2021/06/29 11:17:46;;;;;;;11.60;7.22;;;;;;;30.90;38.21;93964.63;5070425;28;20032;-75
2021/06/29 11:20:18;;;;;;;10.63;7.90;;;;;;;30.99;37.62;93954.47;5067737;28;20065;-75
2021/06/29 11:23:15;;;;;;;12.43;8.18;;;;;;;31.12;36.74;93957.22;5069741;28;20031;-75
2021/06/29 11:25:53;;;;;;;13.65;8.63;;;;;;;31.27;37.73;93949.25;5048694;28;20093;-74
2021/06/29 11:28:30;;;;;;;11.38;7.57;;;;;;;31.42;37.48;93955.03;5058960;28;20071;-75
2021/06/29 11:31:09;;;;;;;15.20;9.32;;;;;;;31.49;36.38;93957.59;5061825;28;20145;-75
2021/06/29 11:34:07;;;;;;;17.35;10.23;;;;;;;31.58;35.90;93946.63;5071810;28;20040;-76